createdAt,value
2022-10-26T00:01:50.890Z,10.13
2022-10-26T00:05:14.591Z,10.09
2022-10-26T00:08:37.754Z,10.11
2022-10-26T00:12:00.408Z,10.10
2022-10-26T00:15:24.804Z,10.10
2022-10-26T00:18:47.969Z,10.09
2022-10-26T00:22:10.822Z,10.12
2022-10-26T00:25:34.299Z,10.08
2022-10-26T00:28:58.486Z,10.16
2022-10-26T00:32:22.772Z,10.17
2022-10-26T00:35:46.365Z,10.17
2022-10-26T00:39:09.616Z,10.17
2022-10-26T00:42:32.066Z,10.17
2022-10-26T00:45:57.379Z,10.18
2022-10-26T00:49:22.900Z,10.19
2022-10-26T00:52:45.783Z,10.13
2022-10-26T00:56:10.147Z,10.17
2022-10-26T00:59:33.625Z,10.18
2022-10-26T01:02:59.455Z,10.17
2022-10-26T01:06:24.249Z,10.16
2022-10-26T01:09:47.520Z,10.09
2022-10-26T01:13:10.665Z,10.16
2022-10-26T01:16:50.887Z,10.15
2022-10-26T01:20:52.414Z,10.16
2022-10-26T01:24:53.982Z,10.19
2022-10-26T01:28:34.137Z,10.18
2022-10-26T01:32:03.860Z,10.19
2022-10-26T01:35:32.557Z,10.20
2022-10-26T01:39:00.229Z,10.11
2022-10-26T01:42:25.850Z,10.20
2022-10-26T01:45:50.237Z,10.20
2022-10-26T01:49:17.396Z,10.23
2022-10-26T01:52:40.253Z,10.20
2022-10-26T01:56:04.550Z,10.20
2022-10-26T01:59:59.685Z,10.19
2022-10-26T02:03:32.405Z,10.21
2022-10-26T02:07:04.527Z,10.21
2022-10-26T02:10:39.060Z,10.18
2022-10-26T02:14:10.341Z,10.19
2022-10-26T02:17:44.846Z,10.24
2022-10-26T02:21:11.694Z,10.23
2022-10-26T02:24:38.644Z,10.22
2022-10-26T02:28:07.754Z,10.20
2022-10-26T02:31:31.124Z,10.21
2022-10-26T02:34:55.696Z,10.20
2022-10-26T02:38:21.697Z,10.21
2022-10-26T02:41:47.677Z,10.20
2022-10-26T02:45:15.250Z,10.21
2022-10-26T02:48:38.615Z,10.23
2022-10-26T02:52:07.723Z,10.23
2022-10-26T02:55:35.187Z,10.19
2022-10-26T02:59:06.444Z,10.16
2022-10-26T03:02:30.766Z,10.16
2022-10-26T03:05:53.797Z,10.15
2022-10-26T03:09:16.247Z,10.22
2022-10-26T03:12:39.720Z,10.24
2022-10-26T03:16:03.902Z,10.23
2022-10-26T03:19:27.064Z,10.27
2022-10-26T03:22:50.131Z,10.23
2022-10-26T03:26:12.580Z,10.27
2022-10-26T03:29:35.442Z,10.27
2022-10-26T03:32:59.724Z,10.29
2022-10-26T03:36:22.888Z,10.27
2022-10-26T03:39:46.271Z,10.30
2022-10-26T03:43:09.115Z,10.29
2022-10-26T03:46:35.461Z,10.30
2022-10-26T03:49:59.469Z,10.29
2022-10-26T03:53:21.887Z,10.26
2022-10-26T03:56:44.847Z,10.27
2022-10-26T04:00:09.247Z,10.27
2022-10-26T04:03:32.199Z,10.29
2022-10-26T04:06:57.003Z,10.29
2022-10-26T04:10:19.863Z,10.25
2022-10-26T04:13:43.137Z,10.27
2022-10-26T04:17:05.891Z,10.24
2022-10-26T04:20:29.765Z,10.27
2022-10-26T04:23:53.748Z,10.27
2022-10-26T04:27:17.326Z,10.27
2022-10-26T04:30:40.698Z,10.25
2022-10-26T04:34:03.554Z,10.24
2022-10-26T04:37:26.107Z,10.27
2022-10-26T04:40:53.173Z,10.26
2022-10-26T04:44:15.914Z,10.29
2022-10-26T04:47:38.877Z,10.28
2022-10-26T04:51:02.345Z,10.26
2022-10-26T04:54:25.200Z,10.30
2022-10-26T04:57:49.739Z,10.29
2022-10-26T05:01:12.751Z,10.15
2022-10-26T05:04:35.835Z,10.34
2022-10-26T05:07:58.781Z,10.34
2022-10-26T05:11:21.441Z,10.35
2022-10-26T05:14:45.826Z,10.35
2022-10-26T05:18:09.512Z,10.35
2022-10-26T05:21:33.010Z,10.25
2022-10-26T05:24:56.141Z,10.36
2022-10-26T05:28:19.407Z,10.36
2022-10-26T05:31:43.911Z,10.38
2022-10-26T05:35:07.273Z,10.33
2022-10-26T05:38:30.068Z,10.39
2022-10-26T05:41:52.589Z,10.40
2022-10-26T05:45:16.362Z,10.38
2022-10-26T05:48:40.658Z,10.39
2022-10-26T05:52:03.409Z,10.37
2022-10-26T05:55:27.187Z,10.42
2022-10-26T05:58:50.453Z,10.43
2022-10-26T06:02:21.425Z,10.46
2022-10-26T06:05:54.494Z,10.41
2022-10-26T06:09:18.829Z,10.48
2022-10-26T06:12:42.666Z,10.49
2022-10-26T06:16:30.827Z,10.51
2022-10-26T06:23:51.865Z,10.42
2022-10-26T06:27:25.985Z,10.52
2022-10-26T06:30:48.947Z,10.53
2022-10-26T06:34:14.265Z,10.52
2022-10-26T06:37:39.472Z,10.57
2022-10-26T06:41:03.976Z,10.58
2022-10-26T06:44:27.703Z,10.59
2022-10-26T06:47:59.318Z,10.57
2022-10-26T06:51:23.604Z,10.63
2022-10-26T06:54:51.885Z,10.54
2022-10-26T06:58:19.962Z,10.66
2022-10-26T07:01:42.911Z,10.65
2022-10-26T07:05:06.706Z,10.66
2022-10-26T07:08:29.256Z,10.67
2022-10-26T07:11:51.906Z,10.70
2022-10-26T07:15:16.402Z,10.70
2022-10-26T07:18:39.809Z,10.71
2022-10-26T07:22:02.526Z,10.72
2022-10-26T07:25:26.718Z,10.68
2022-10-26T07:28:51.008Z,10.73
2022-10-26T07:32:14.990Z,10.82
2022-10-26T07:35:38.260Z,10.89
2022-10-26T07:39:01.222Z,10.97
2022-10-26T07:42:24.177Z,11.03
2022-10-26T07:45:47.363Z,11.08
2022-10-26T07:49:11.743Z,11.10
2022-10-26T07:52:36.338Z,11.11
2022-10-26T07:55:59.809Z,11.08
2022-10-26T07:59:22.462Z,11.06
2022-10-26T08:02:48.828Z,11.12
2022-10-26T08:06:13.403Z,11.17
2022-10-26T08:09:36.358Z,11.20
2022-10-26T08:12:59.527Z,11.21
2022-10-26T08:16:23.201Z,11.19
2022-10-26T08:19:46.156Z,11.25
2022-10-26T08:23:10.966Z,11.30
2022-10-26T08:26:34.031Z,11.31
2022-10-26T08:29:56.838Z,11.37
2022-10-26T08:33:20.356Z,11.40
2022-10-26T08:36:43.418Z,11.47
2022-10-26T08:40:08.835Z,11.54
2022-10-26T08:43:39.987Z,11.61
2022-10-26T08:47:09.102Z,11.65
2022-10-26T08:50:42.050Z,11.74
2022-10-26T08:54:14.489Z,11.83
2022-10-26T08:57:43.060Z,11.92
2022-10-26T09:01:06.096Z,11.96
2022-10-26T09:04:30.848Z,12.00
2022-10-26T09:08:00.746Z,12.02
2022-10-26T09:11:34.363Z,12.01
2022-10-26T09:15:14.003Z,12.05
2022-10-26T09:18:48.640Z,12.14
2022-10-26T09:22:19.083Z,12.26
2022-10-26T09:25:44.283Z,12.32
2022-10-26T09:29:12.906Z,12.35
2022-10-26T09:32:45.052Z,12.37
2022-10-26T09:36:13.329Z,12.35
2022-10-26T09:39:44.386Z,12.28
2022-10-26T09:43:13.081Z,12.21
2022-10-26T09:46:46.591Z,12.12
2022-10-26T09:50:20.406Z,12.19
2022-10-26T09:53:44.181Z,12.24
2022-10-26T09:57:08.985Z,12.26
2022-10-26T10:00:32.695Z,12.22
2022-10-26T10:04:13.034Z,12.34
2022-10-26T10:07:40.035Z,12.24
2022-10-26T10:11:05.887Z,12.48
2022-10-26T10:14:31.729Z,12.40
2022-10-26T10:17:57.651Z,12.54
2022-10-26T10:21:20.730Z,12.57
2022-10-26T10:24:55.271Z,12.55
2022-10-26T10:28:23.889Z,12.48
2022-10-26T10:31:58.287Z,12.49
2022-10-26T10:35:26.468Z,12.49
2022-10-26T10:38:51.883Z,12.49
2022-10-26T10:42:23.755Z,12.53
2022-10-26T10:45:50.095Z,12.58
2022-10-26T10:49:22.480Z,12.54
2022-10-26T10:52:46.056Z,12.51
2022-10-26T10:56:43.111Z,12.48
2022-10-26T11:00:08.860Z,12.41
2022-10-26T11:03:59.029Z,12.35
2022-10-26T11:07:26.500Z,12.25
2022-10-26T11:10:55.706Z,12.22
2022-10-26T11:14:28.087Z,12.08
2022-10-26T11:18:04.463Z,11.95
2022-10-26T11:21:30.956Z,11.80
2022-10-26T11:25:01.639Z,11.77
2022-10-26T11:28:44.780Z,11.77
2022-10-26T11:32:16.028Z,11.80
2022-10-26T11:35:47.798Z,11.88
2022-10-26T11:39:20.789Z,11.91
2022-10-26T11:42:46.902Z,11.90
2022-10-26T11:46:18.207Z,11.90
2022-10-26T11:49:48.208Z,11.91
2022-10-26T11:53:17.312Z,11.96
2022-10-26T11:56:43.856Z,12.02
2022-10-26T12:00:09.068Z,12.00
2022-10-26T12:03:35.922Z,12.01
2022-10-26T12:07:01.438Z,11.99
2022-10-26T12:10:29.932Z,11.98
2022-10-26T12:13:57.501Z,11.97
2022-10-26T12:17:28.341Z,11.97
2022-10-26T12:21:03.074Z,11.94
2022-10-26T12:24:33.926Z,11.95
2022-10-26T12:28:00.883Z,11.86
2022-10-26T12:31:45.853Z,11.91
2022-10-26T12:35:34.926Z,11.89
2022-10-26T12:39:00.034Z,11.85
2022-10-26T12:42:32.109Z,11.76
2022-10-26T12:46:53.752Z,11.70
2022-10-26T12:50:27.349Z,11.63
2022-10-26T12:53:56.865Z,11.57
2022-10-26T12:57:26.072Z,11.48
2022-10-26T13:00:57.541Z,11.35
2022-10-26T13:04:46.091Z,11.35
2022-10-26T13:08:12.533Z,11.35
2022-10-26T13:11:38.775Z,11.37
2022-10-26T13:15:06.134Z,11.37
2022-10-26T13:18:29.709Z,11.31
2022-10-26T13:21:53.490Z,11.31
2022-10-26T13:25:24.533Z,11.30
2022-10-26T13:28:51.389Z,11.22
2022-10-26T13:32:16.298Z,11.23
2022-10-26T13:35:43.860Z,11.19
2022-10-26T13:39:12.146Z,11.16
2022-10-26T13:42:48.932Z,10.94
2022-10-26T13:46:31.145Z,11.04
2022-10-26T13:49:58.813Z,11.05
2022-10-26T13:53:25.149Z,11.03
2022-10-26T13:57:00.099Z,10.96
2022-10-26T14:00:25.923Z,10.89
2022-10-26T14:03:49.192Z,10.83
2022-10-26T14:07:21.261Z,10.74
2022-10-26T14:10:47.976Z,10.71
2022-10-26T14:14:18.137Z,10.70
2022-10-26T14:17:42.531Z,10.69
2022-10-26T14:21:08.666Z,10.65
2022-10-26T14:24:46.167Z,10.61
2022-10-26T14:28:23.775Z,10.47
2022-10-26T14:31:46.841Z,10.52
2022-10-26T14:35:15.432Z,10.46
2022-10-26T14:38:46.163Z,10.46
2022-10-26T14:42:17.315Z,10.47
2022-10-26T14:45:49.849Z,10.43
2022-10-26T14:49:21.264Z,10.39
2022-10-26T14:52:53.137Z,10.36
2022-10-26T14:56:26.428Z,10.31
2022-10-26T15:00:02.935Z,10.35
2022-10-26T15:03:26.481Z,10.33
2022-10-26T15:06:49.550Z,10.29
2022-10-26T15:10:47.533Z,10.30
2022-10-26T15:14:14.685Z,10.23
2022-10-26T15:17:42.155Z,10.08
2022-10-26T15:21:07.877Z,10.20
2022-10-26T15:24:37.550Z,10.18
2022-10-26T15:28:12.740Z,10.11
2022-10-26T15:31:37.050Z,10.13
2022-10-26T15:35:25.187Z,10.12
2022-10-26T15:38:49.170Z,10.11
2022-10-26T15:42:15.807Z,10.08
2022-10-26T15:45:48.202Z,10.06
2022-10-26T15:49:19.853Z,9.97
2022-10-26T15:52:45.341Z,9.98
2022-10-26T15:56:17.584Z,9.97
2022-10-26T15:59:40.713Z,9.96
2022-10-26T16:03:04.910Z,9.92
2022-10-26T16:06:31.551Z,9.89
2022-10-26T16:09:54.522Z,9.88
2022-10-26T16:13:17.473Z,9.83
2022-10-26T16:16:40.741Z,9.82
2022-10-26T16:20:08.896Z,9.80
2022-10-26T16:23:33.527Z,9.82
2022-10-26T16:26:57.099Z,9.78
2022-10-26T16:30:21.070Z,9.78
2022-10-26T16:33:44.453Z,9.76
2022-10-26T16:37:06.898Z,9.75
2022-10-26T16:40:31.285Z,9.75
2022-10-26T16:43:54.148Z,9.75
2022-10-26T16:47:18.068Z,9.70
2022-10-26T16:50:41.196Z,9.63
2022-10-26T16:54:04.765Z,9.69
2022-10-26T16:57:29.368Z,9.65
2022-10-26T17:00:56.827Z,9.67
2022-10-26T17:04:20.002Z,9.64
2022-10-26T17:07:42.446Z,9.63
2022-10-26T17:11:07.966Z,9.57
2022-10-26T17:14:32.463Z,9.55
2022-10-26T17:17:55.524Z,9.65
2022-10-26T17:21:20.743Z,9.59
2022-10-26T17:24:43.797Z,9.59
2022-10-26T17:28:06.959Z,9.56
2022-10-26T17:31:31.091Z,9.55
2022-10-26T17:34:53.802Z,9.53
2022-10-26T17:38:16.764Z,9.53
2022-10-26T17:41:39.210Z,9.53
2022-10-26T17:45:02.168Z,9.53
2022-10-26T17:48:26.368Z,9.52
2022-10-26T17:51:49.320Z,9.51
2022-10-26T17:55:12.179Z,9.50
2022-10-26T17:58:35.236Z,9.47
2022-10-26T18:01:58.303Z,9.49
2022-10-26T18:05:22.800Z,9.47
2022-10-26T18:08:46.577Z,9.46
2022-10-26T18:12:11.273Z,9.46
2022-10-26T18:15:37.720Z,9.43
2022-10-26T18:19:03.445Z,9.43
2022-10-26T18:22:27.838Z,9.42
2022-10-26T18:25:53.567Z,9.38
2022-10-26T18:29:16.072Z,9.28
2022-10-26T18:32:39.074Z,9.36
2022-10-26T18:36:09.818Z,9.36
2022-10-26T18:39:34.619Z,9.34
2022-10-26T18:42:57.778Z,9.34
2022-10-26T18:46:24.041Z,9.34
2022-10-26T18:49:46.469Z,9.33
2022-10-26T18:53:13.229Z,9.34
2022-10-26T18:56:37.304Z,9.33
2022-10-26T19:00:00.269Z,9.34
2022-10-26T19:03:22.809Z,9.36
2022-10-26T19:06:47.935Z,9.21
2022-10-26T19:10:11.909Z,9.33
2022-10-26T19:13:37.839Z,9.34
2022-10-26T19:17:00.286Z,9.34
2022-10-26T19:20:23.257Z,9.31
2022-10-26T19:23:48.559Z,9.30
2022-10-26T19:27:11.676Z,9.31
2022-10-26T19:30:40.312Z,9.27
2022-10-26T19:34:03.996Z,9.26
2022-10-26T19:37:28.472Z,9.23
2022-10-26T19:40:59.227Z,9.22
2022-10-26T19:44:25.348Z,9.23
2022-10-26T19:47:50.042Z,9.21
2022-10-26T19:51:12.612Z,9.22
2022-10-26T19:54:35.682Z,9.22
2022-10-26T19:57:58.638Z,9.24
2022-10-26T20:01:22.153Z,9.19
2022-10-26T20:04:46.917Z,9.24
2022-10-26T20:08:10.080Z,9.23
2022-10-26T20:11:33.034Z,9.22
2022-10-26T20:14:55.896Z,9.22
2022-10-26T20:18:19.369Z,9.21
2022-10-26T20:21:44.182Z,9.17
2022-10-26T20:25:07.844Z,9.16
2022-10-26T20:28:31.531Z,9.19
2022-10-26T20:31:56.058Z,9.16
2022-10-26T20:35:19.597Z,9.10
2022-10-26T20:38:45.008Z,9.17
2022-10-26T20:42:23.639Z,9.13
2022-10-26T20:45:47.829Z,9.18
2022-10-26T20:49:15.596Z,9.18
2022-10-26T20:52:45.314Z,9.16
2022-10-26T20:56:21.592Z,9.11
2022-10-26T20:59:49.361Z,9.14
2022-10-26T21:03:13.239Z,9.11
2022-10-26T21:06:40.501Z,9.11
2022-10-26T21:10:03.579Z,9.12
2022-10-26T21:13:27.961Z,9.09
2022-10-26T21:16:50.817Z,9.05
2022-10-26T21:20:18.369Z,9.09
2022-10-26T21:23:42.888Z,9.06
2022-10-26T21:27:06.044Z,9.08
2022-10-26T21:30:30.545Z,9.06
2022-10-26T21:33:53.295Z,9.01
2022-10-26T21:37:17.999Z,9.01
2022-10-26T21:40:40.958Z,8.99
2022-10-26T21:44:09.342Z,8.99
2022-10-26T21:47:40.087Z,8.98
2022-10-26T21:51:04.075Z,8.94
2022-10-26T21:54:26.928Z,8.98
2022-10-26T21:57:50.134Z,8.94
2022-10-26T22:01:15.152Z,8.94
2022-10-26T22:04:39.395Z,8.94
2022-10-26T22:08:02.172Z,8.93
2022-10-26T22:11:26.649Z,8.92
2022-10-26T22:14:49.401Z,8.86
2022-10-26T22:18:12.060Z,8.83
2022-10-26T22:21:37.979Z,8.82
2022-10-26T22:25:00.634Z,8.79
2022-10-26T22:28:23.388Z,8.70
2022-10-26T22:31:46.046Z,8.76
2022-10-26T22:35:24.791Z,8.71
2022-10-26T22:38:54.083Z,8.74
2022-10-26T22:42:16.738Z,8.68
2022-10-26T22:45:39.997Z,8.65
2022-10-26T22:49:03.884Z,8.70
2022-10-26T22:52:26.741Z,8.72
2022-10-26T22:55:51.551Z,8.71
2022-10-26T22:59:14.417Z,8.67
2022-10-26T23:02:37.051Z,8.64
2022-10-26T23:06:00.124Z,8.64
2022-10-26T23:09:22.360Z,8.63
2022-10-26T23:12:46.755Z,8.64
2022-10-26T23:16:12.064Z,8.63
2022-10-26T23:19:35.333Z,8.63
2022-10-26T23:22:57.784Z,8.56
2022-10-26T23:26:21.971Z,8.50
2022-10-26T23:29:46.613Z,8.57
2022-10-26T23:33:09.634Z,8.62
2022-10-26T23:36:32.487Z,8.60
2022-10-26T23:39:55.038Z,8.59
2022-10-26T23:43:18.405Z,8.57
2022-10-26T23:46:43.010Z,8.59
2022-10-26T23:50:06.480Z,8.59
2022-10-26T23:53:29.441Z,8.58
2022-10-26T23:56:52.396Z,8.60
